sensor_id;sensor_type;location;lat;lon;timestamp;P1;durP1;ratioP1;P2;durP2;ratioP2
8104;SDS011;4095;48.942;9.104;2024-01-07T00:01:56;12.03;;;10.80;;
8104;SDS011;4095;48.942;9.104;2024-01-07T00:04:22;13.07;;;11.77;;
8104;SDS011;4095;48.942;9.104;2024-01-07T00:06:47;12.37;;;11.17;;
8104;SDS011;4095;48.942;9.104;2024-01-07T00:09:13;12.87;;;11.57;;
8104;SDS011;4095;48.942;9.104;2024-01-07T00:11:39;14.00;;;12.47;;
8104;SDS011;4095;48.942;9.104;2024-01-07T00:14:05;12.00;;;10.80;;
8104;SDS011;4095;48.942;9.104;2024-01-07T00:16:31;16.57;;;14.20;;
8104;SDS011;4095;48.942;9.104;2024-01-07T00:18:57;16.83;;;14.20;;
8104;SDS011;4095;48.942;9.104;2024-01-07T00:21:23;17.27;;;14.13;;
8104;SDS011;4095;48.942;9.104;2024-01-07T00:23:49;16.70;;;13.30;;
8104;SDS011;4095;48.942;9.104;2024-01-07T00:26:14;14.80;;;13.30;;
8104;SDS011;4095;48.942;9.104;2024-01-07T00:28:40;14.70;;;13.17;;
8104;SDS011;4095;48.942;9.104;2024-01-07T00:31:05;14.50;;;13.00;;
8104;SDS011;4095;48.942;9.104;2024-01-07T00:33:34;13.77;;;12.23;;
8104;SDS011;4095;48.942;9.104;2024-01-07T00:36:00;15.07;;;13.33;;
8104;SDS011;4095;48.942;9.104;2024-01-07T00:38:26;17.37;;;15.03;;
8104;SDS011;4095;48.942;9.104;2024-01-07T00:40:52;15.73;;;14.03;;
8104;SDS011;4095;48.942;9.104;2024-01-07T00:43:17;14.97;;;13.33;;
8104;SDS011;4095;48.942;9.104;2024-01-07T00:45:43;17.20;;;15.07;;
8104;SDS011;4095;48.942;9.104;2024-01-07T00:48:09;17.40;;;15.27;;
8104;SDS011;4095;48.942;9.104;2024-01-07T00:50:35;19.50;;;15.97;;
8104;SDS011;4095;48.942;9.104;2024-01-07T00:53:00;19.70;;;16.60;;
8104;SDS011;4095;48.942;9.104;2024-01-07T00:55:26;20.30;;;16.90;;
8104;SDS011;4095;48.942;9.104;2024-01-07T00:57:51;18.43;;;16.27;;
8104;SDS011;4095;48.942;9.104;2024-01-07T01:00:17;21.20;;;17.90;;
8104;SDS011;4095;48.942;9.104;2024-01-07T01:02:43;20.70;;;17.30;;
8104;SDS011;4095;48.942;9.104;2024-01-07T01:05:09;19.20;;;16.23;;
8104;SDS011;4095;48.942;9.104;2024-01-07T01:07:34;20.93;;;17.23;;
8104;SDS011;4095;48.942;9.104;2024-01-07T01:10:00;19.87;;;17.23;;
8104;SDS011;4095;48.942;9.104;2024-01-07T01:12:25;21.70;;;17.63;;
8104;SDS011;4095;48.942;9.104;2024-01-07T01:14:51;20.17;;;17.23;;
8104;SDS011;4095;48.942;9.104;2024-01-07T01:17:17;20.60;;;16.33;;
8104;SDS011;4095;48.942;9.104;2024-01-07T01:19:42;19.07;;;16.20;;
8104;SDS011;4095;48.942;9.104;2024-01-07T01:22:08;19.00;;;16.13;;
8104;SDS011;4095;48.942;9.104;2024-01-07T01:24:33;21.40;;;16.50;;
8104;SDS011;4095;48.942;9.104;2024-01-07T01:26:59;16.17;;;14.27;;
8104;SDS011;4095;48.942;9.104;2024-01-07T01:29:25;18.07;;;14.77;;
8104;SDS011;4095;48.942;9.104;2024-01-07T01:31:50;15.80;;;13.40;;
8104;SDS011;4095;48.942;9.104;2024-01-07T01:34:16;15.23;;;13.60;;
8104;SDS011;4095;48.942;9.104;2024-01-07T01:36:42;14.77;;;13.17;;
8104;SDS011;4095;48.942;9.104;2024-01-07T01:39:07;15.60;;;13.03;;
8104;SDS011;4095;48.942;9.104;2024-01-07T01:41:33;15.47;;;12.70;;
8104;SDS011;4095;48.942;9.104;2024-01-07T01:44:00;13.23;;;11.80;;
8104;SDS011;4095;48.942;9.104;2024-01-07T01:46:26;14.17;;;12.33;;
8104;SDS011;4095;48.942;9.104;2024-01-07T01:48:53;16.07;;;12.63;;
8104;SDS011;4095;48.942;9.104;2024-01-07T01:51:19;13.90;;;12.40;;
8104;SDS011;4095;48.942;9.104;2024-01-07T01:53:46;14.60;;;11.53;;
8104;SDS011;4095;48.942;9.104;2024-01-07T01:56:14;14.90;;;12.30;;
8104;SDS011;4095;48.942;9.104;2024-01-07T01:58:42;13.20;;;11.37;;
8104;SDS011;4095;48.942;9.104;2024-01-07T02:01:08;13.13;;;11.73;;
8104;SDS011;4095;48.942;9.104;2024-01-07T02:03:34;13.30;;;11.90;;
8104;SDS011;4095;48.942;9.104;2024-01-07T02:05:59;13.47;;;12.10;;
8104;SDS011;4095;48.942;9.104;2024-01-07T02:08:25;14.07;;;12.00;;
8104;SDS011;4095;48.942;9.104;2024-01-07T02:10:51;17.63;;;13.73;;
8104;SDS011;4095;48.942;9.104;2024-01-07T02:13:17;15.97;;;12.50;;
8104;SDS011;4095;48.942;9.104;2024-01-07T02:15:43;13.67;;;12.17;;
8104;SDS011;4095;48.942;9.104;2024-01-07T02:18:09;13.00;;;11.53;;
8104;SDS011;4095;48.942;9.104;2024-01-07T02:20:34;13.93;;;11.93;;
8104;SDS011;4095;48.942;9.104;2024-01-07T02:23:03;15.43;;;12.67;;
8104;SDS011;4095;48.942;9.104;2024-01-07T02:25:29;14.23;;;12.47;;
8104;SDS011;4095;48.942;9.104;2024-01-07T02:27:59;15.07;;;12.47;;
8104;SDS011;4095;48.942;9.104;2024-01-07T02:30:25;13.43;;;12.03;;
8104;SDS011;4095;48.942;9.104;2024-01-07T02:32:52;13.17;;;11.30;;
8104;SDS011;4095;48.942;9.104;2024-01-07T02:35:17;14.03;;;12.53;;
8104;SDS011;4095;48.942;9.104;2024-01-07T02:37:43;13.77;;;11.70;;
8104;SDS011;4095;48.942;9.104;2024-01-07T02:40:09;14.60;;;12.50;;
8104;SDS011;4095;48.942;9.104;2024-01-07T02:42:35;14.33;;;12.30;;
8104;SDS011;4095;48.942;9.104;2024-01-07T02:45:00;15.23;;;12.33;;
8104;SDS011;4095;48.942;9.104;2024-01-07T02:47:26;14.73;;;12.57;;
8104;SDS011;4095;48.942;9.104;2024-01-07T02:49:51;14.93;;;12.77;;
8104;SDS011;4095;48.942;9.104;2024-01-07T02:52:17;13.80;;;12.37;;
8104;SDS011;4095;48.942;9.104;2024-01-07T02:54:42;15.90;;;12.87;;
8104;SDS011;4095;48.942;9.104;2024-01-07T02:57:08;15.73;;;12.90;;
8104;SDS011;4095;48.942;9.104;2024-01-07T02:59:34;16.73;;;13.90;;
8104;SDS011;4095;48.942;9.104;2024-01-07T03:02:00;16.67;;;13.57;;
8104;SDS011;4095;48.942;9.104;2024-01-07T03:04:25;17.80;;;14.10;;
8104;SDS011;4095;48.942;9.104;2024-01-07T03:06:51;17.30;;;14.30;;
8104;SDS011;4095;48.942;9.104;2024-01-07T03:09:16;15.30;;;13.60;;
8104;SDS011;4095;48.942;9.104;2024-01-07T03:11:42;16.87;;;13.87;;
8104;SDS011;4095;48.942;9.104;2024-01-07T03:14:07;15.43;;;12.83;;
8104;SDS011;4095;48.942;9.104;2024-01-07T03:16:34;16.47;;;13.70;;
8104;SDS011;4095;48.942;9.104;2024-01-07T03:18:59;15.97;;;13.57;;
8104;SDS011;4095;48.942;9.104;2024-01-07T03:21:27;16.47;;;13.70;;
8104;SDS011;4095;48.942;9.104;2024-01-07T03:23:52;14.73;;;12.73;;
8104;SDS011;4095;48.942;9.104;2024-01-07T03:26:19;17.07;;;13.43;;
8104;SDS011;4095;48.942;9.104;2024-01-07T03:28:45;16.10;;;13.77;;
8104;SDS011;4095;48.942;9.104;2024-01-07T03:31:15;15.70;;;13.33;;
8104;SDS011;4095;48.942;9.104;2024-01-07T03:33:41;16.63;;;13.40;;
8104;SDS011;4095;48.942;9.104;2024-01-07T03:36:08;16.03;;;14.10;;
8104;SDS011;4095;48.942;9.104;2024-01-07T03:38:38;17.70;;;14.63;;
8104;SDS011;4095;48.942;9.104;2024-01-07T03:41:04;18.73;;;14.00;;
8104;SDS011;4095;48.942;9.104;2024-01-07T03:43:30;18.37;;;15.37;;
8104;SDS011;4095;48.942;9.104;2024-01-07T03:45:56;18.67;;;14.63;;
8104;SDS011;4095;48.942;9.104;2024-01-07T03:48:22;16.03;;;12.70;;
8104;SDS011;4095;48.942;9.104;2024-01-07T03:50:48;15.03;;;13.27;;
8104;SDS011;4095;48.942;9.104;2024-01-07T03:53:14;16.50;;;13.37;;
8104;SDS011;4095;48.942;9.104;2024-01-07T03:55:40;15.70;;;13.20;;
8104;SDS011;4095;48.942;9.104;2024-01-07T03:58:05;17.00;;;13.90;;
8104;SDS011;4095;48.942;9.104;2024-01-07T04:00:31;17.63;;;12.93;;
8104;SDS011;4095;48.942;9.104;2024-01-07T04:02:57;18.20;;;13.57;;
8104;SDS011;4095;48.942;9.104;2024-01-07T04:05:23;14.07;;;12.60;;
8104;SDS011;4095;48.942;9.104;2024-01-07T04:07:49;15.70;;;12.67;;
8104;SDS011;4095;48.942;9.104;2024-01-07T04:10:18;15.00;;;12.30;;
8104;SDS011;4095;48.942;9.104;2024-01-07T04:12:44;16.30;;;13.33;;
8104;SDS011;4095;48.942;9.104;2024-01-07T04:15:10;16.13;;;13.37;;
8104;SDS011;4095;48.942;9.104;2024-01-07T04:17:37;16.00;;;12.97;;
8104;SDS011;4095;48.942;9.104;2024-01-07T04:20:02;17.57;;;13.07;;
8104;SDS011;4095;48.942;9.104;2024-01-07T04:22:28;15.40;;;12.90;;
8104;SDS011;4095;48.942;9.104;2024-01-07T04:24:54;16.37;;;12.30;;
8104;SDS011;4095;48.942;9.104;2024-01-07T04:27:20;16.13;;;13.17;;
8104;SDS011;4095;48.942;9.104;2024-01-07T04:29:45;15.33;;;12.80;;
8104;SDS011;4095;48.942;9.104;2024-01-07T04:32:11;14.63;;;12.20;;
8104;SDS011;4095;48.942;9.104;2024-01-07T04:34:37;16.23;;;12.53;;
8104;SDS011;4095;48.942;9.104;2024-01-07T04:37:02;15.77;;;12.47;;
8104;SDS011;4095;48.942;9.104;2024-01-07T04:39:28;18.30;;;13.53;;
8104;SDS011;4095;48.942;9.104;2024-01-07T04:41:54;17.00;;;13.67;;
8104;SDS011;4095;48.942;9.104;2024-01-07T04:44:19;16.17;;;12.87;;
8104;SDS011;4095;48.942;9.104;2024-01-07T04:46:45;17.20;;;13.53;;
8104;SDS011;4095;48.942;9.104;2024-01-07T04:49:12;15.97;;;12.33;;
8104;SDS011;4095;48.942;9.104;2024-01-07T04:51:38;14.97;;;12.23;;
8104;SDS011;4095;48.942;9.104;2024-01-07T04:54:03;13.40;;;11.70;;
8104;SDS011;4095;48.942;9.104;2024-01-07T04:56:30;15.70;;;12.50;;
8104;SDS011;4095;48.942;9.104;2024-01-07T04:58:56;14.57;;;11.93;;
8104;SDS011;4095;48.942;9.104;2024-01-07T05:01:22;14.40;;;11.30;;
8104;SDS011;4095;48.942;9.104;2024-01-07T05:03:48;14.33;;;11.20;;
8104;SDS011;4095;48.942;9.104;2024-01-07T05:06:13;14.97;;;11.83;;
8104;SDS011;4095;48.942;9.104;2024-01-07T05:08:40;15.00;;;11.67;;
8104;SDS011;4095;48.942;9.104;2024-01-07T05:11:06;14.23;;;11.13;;
8104;SDS011;4095;48.942;9.104;2024-01-07T05:13:31;15.23;;;12.07;;
8104;SDS011;4095;48.942;9.104;2024-01-07T05:15:57;15.10;;;11.33;;
8104;SDS011;4095;48.942;9.104;2024-01-07T05:18:23;14.80;;;11.47;;
8104;SDS011;4095;48.942;9.104;2024-01-07T05:20:49;14.30;;;11.67;;
8104;SDS011;4095;48.942;9.104;2024-01-07T05:23:15;13.87;;;10.80;;
8104;SDS011;4095;48.942;9.104;2024-01-07T05:25:44;13.97;;;11.27;;
8104;SDS011;4095;48.942;9.104;2024-01-07T05:28:11;13.50;;;10.63;;
8104;SDS011;4095;48.942;9.104;2024-01-07T05:30:37;13.13;;;10.80;;
8104;SDS011;4095;48.942;9.104;2024-01-07T05:33:03;12.17;;;10.07;;
8104;SDS011;4095;48.942;9.104;2024-01-07T05:35:29;15.50;;;12.60;;
8104;SDS011;4095;48.942;9.104;2024-01-07T05:37:55;17.13;;;14.73;;
8104;SDS011;4095;48.942;9.104;2024-01-07T05:40:21;15.40;;;12.90;;
8104;SDS011;4095;48.942;9.104;2024-01-07T05:42:47;14.30;;;11.77;;
8104;SDS011;4095;48.942;9.104;2024-01-07T05:45:13;13.07;;;11.03;;
8104;SDS011;4095;48.942;9.104;2024-01-07T05:47:38;13.93;;;11.20;;
8104;SDS011;4095;48.942;9.104;2024-01-07T05:50:05;12.83;;;10.80;;
8104;SDS011;4095;48.942;9.104;2024-01-07T05:52:32;13.63;;;10.73;;
8104;SDS011;4095;48.942;9.104;2024-01-07T05:54:57;12.50;;;10.50;;
8104;SDS011;4095;48.942;9.104;2024-01-07T05:57:23;12.30;;;10.03;;
8104;SDS011;4095;48.942;9.104;2024-01-07T05:59:49;12.67;;;10.37;;
8104;SDS011;4095;48.942;9.104;2024-01-07T06:02:15;13.07;;;10.07;;
8104;SDS011;4095;48.942;9.104;2024-01-07T06:04:42;15.13;;;11.53;;
8104;SDS011;4095;48.942;9.104;2024-01-07T06:07:08;11.97;;;10.20;;
8104;SDS011;4095;48.942;9.104;2024-01-07T06:09:34;11.30;;;9.80;;
8104;SDS011;4095;48.942;9.104;2024-01-07T06:11:59;11.60;;;9.90;;
8104;SDS011;4095;48.942;9.104;2024-01-07T06:14:26;13.67;;;11.03;;
8104;SDS011;4095;48.942;9.104;2024-01-07T06:16:51;14.90;;;10.40;;
8104;SDS011;4095;48.942;9.104;2024-01-07T06:19:17;11.57;;;9.87;;
8104;SDS011;4095;48.942;9.104;2024-01-07T06:21:43;12.33;;;10.13;;
8104;SDS011;4095;48.942;9.104;2024-01-07T06:24:08;12.43;;;10.33;;
8104;SDS011;4095;48.942;9.104;2024-01-07T06:26:34;12.07;;;10.43;;
8104;SDS011;4095;48.942;9.104;2024-01-07T06:29:00;13.70;;;11.03;;
8104;SDS011;4095;48.942;9.104;2024-01-07T06:31:26;11.93;;;10.07;;
8104;SDS011;4095;48.942;9.104;2024-01-07T06:33:51;11.83;;;9.70;;
8104;SDS011;4095;48.942;9.104;2024-01-07T06:36:17;11.37;;;9.60;;
8104;SDS011;4095;48.942;9.104;2024-01-07T06:38:43;10.60;;;8.70;;
8104;SDS011;4095;48.942;9.104;2024-01-07T06:41:09;11.17;;;9.70;;
8104;SDS011;4095;48.942;9.104;2024-01-07T06:43:36;12.07;;;9.93;;
8104;SDS011;4095;48.942;9.104;2024-01-07T06:46:02;13.53;;;10.00;;
8104;SDS011;4095;48.942;9.104;2024-01-07T06:48:27;11.37;;;9.43;;
8104;SDS011;4095;48.942;9.104;2024-01-07T06:50:53;12.90;;;10.40;;
8104;SDS011;4095;48.942;9.104;2024-01-07T06:53:19;11.37;;;9.60;;
8104;SDS011;4095;48.942;9.104;2024-01-07T06:55:44;11.20;;;9.27;;
8104;SDS011;4095;48.942;9.104;2024-01-07T06:58:10;11.60;;;9.33;;
8104;SDS011;4095;48.942;9.104;2024-01-07T07:00:35;11.73;;;9.40;;
8104;SDS011;4095;48.942;9.104;2024-01-07T07:03:01;10.30;;;9.07;;
8104;SDS011;4095;48.942;9.104;2024-01-07T07:05:27;13.13;;;9.50;;
8104;SDS011;4095;48.942;9.104;2024-01-07T07:07:52;9.87;;;8.87;;
8104;SDS011;4095;48.942;9.104;2024-01-07T07:10:18;10.57;;;9.03;;
8104;SDS011;4095;48.942;9.104;2024-01-07T07:12:43;11.97;;;9.03;;
8104;SDS011;4095;48.942;9.104;2024-01-07T07:15:09;9.70;;;8.53;;
8104;SDS011;4095;48.942;9.104;2024-01-07T07:17:35;9.20;;;8.00;;
8104;SDS011;4095;48.942;9.104;2024-01-07T07:20:04;8.87;;;7.97;;
8104;SDS011;4095;48.942;9.104;2024-01-07T07:22:31;8.80;;;7.87;;
8104;SDS011;4095;48.942;9.104;2024-01-07T07:24:56;8.57;;;7.67;;
8104;SDS011;4095;48.942;9.104;2024-01-07T07:27:22;9.77;;;7.67;;
8104;SDS011;4095;48.942;9.104;2024-01-07T07:29:48;9.00;;;8.10;;
8104;SDS011;4095;48.942;9.104;2024-01-07T07:32:13;8.67;;;7.73;;
8104;SDS011;4095;48.942;9.104;2024-01-07T07:34:39;9.80;;;8.07;;
8104;SDS011;4095;48.942;9.104;2024-01-07T07:37:04;8.80;;;7.57;;
8104;SDS011;4095;48.942;9.104;2024-01-07T07:39:30;9.67;;;8.10;;
8104;SDS011;4095;48.942;9.104;2024-01-07T07:41:55;8.73;;;7.40;;
8104;SDS011;4095;48.942;9.104;2024-01-07T07:44:21;7.50;;;6.70;;
8104;SDS011;4095;48.942;9.104;2024-01-07T07:46:47;10.03;;;7.63;;
8104;SDS011;4095;48.942;9.104;2024-01-07T07:49:12;7.40;;;6.70;;
8104;SDS011;4095;48.942;9.104;2024-01-07T07:51:38;9.87;;;7.30;;
8104;SDS011;4095;48.942;9.104;2024-01-07T07:54:04;7.03;;;6.10;;
8104;SDS011;4095;48.942;9.104;2024-01-07T07:56:30;6.87;;;6.17;;
8104;SDS011;4095;48.942;9.104;2024-01-07T07:58:55;7.70;;;6.47;;
8104;SDS011;4095;48.942;9.104;2024-01-07T08:01:21;6.73;;;6.03;;
8104;SDS011;4095;48.942;9.104;2024-01-07T08:03:46;6.97;;;6.10;;
8104;SDS011;4095;48.942;9.104;2024-01-07T08:06:12;6.43;;;5.60;;
8104;SDS011;4095;48.942;9.104;2024-01-07T08:08:38;7.20;;;5.20;;
8104;SDS011;4095;48.942;9.104;2024-01-07T08:11:04;7.27;;;5.70;;
8104;SDS011;4095;48.942;9.104;2024-01-07T08:13:34;6.77;;;5.00;;
8104;SDS011;4095;48.942;9.104;2024-01-07T08:16:00;6.40;;;5.00;;
8104;SDS011;4095;48.942;9.104;2024-01-07T08:18:26;4.93;;;4.20;;
8104;SDS011;4095;48.942;9.104;2024-01-07T08:20:52;5.63;;;4.70;;
8104;SDS011;4095;48.942;9.104;2024-01-07T08:23:17;4.83;;;4.30;;
8104;SDS011;4095;48.942;9.104;2024-01-07T08:25:43;5.80;;;4.50;;
8104;SDS011;4095;48.942;9.104;2024-01-07T08:28:10;5.40;;;4.10;;
8104;SDS011;4095;48.942;9.104;2024-01-07T08:30:36;5.03;;;4.53;;
8104;SDS011;4095;48.942;9.104;2024-01-07T08:33:01;6.73;;;5.07;;
8104;SDS011;4095;48.942;9.104;2024-01-07T08:35:28;6.40;;;5.67;;
8104;SDS011;4095;48.942;9.104;2024-01-07T08:37:53;7.90;;;5.90;;
8104;SDS011;4095;48.942;9.104;2024-01-07T08:40:19;5.47;;;4.40;;
8104;SDS011;4095;48.942;9.104;2024-01-07T08:42:45;5.83;;;4.90;;
8104;SDS011;4095;48.942;9.104;2024-01-07T08:45:11;5.47;;;4.97;;
8104;SDS011;4095;48.942;9.104;2024-01-07T08:47:37;5.77;;;4.87;;
8104;SDS011;4095;48.942;9.104;2024-01-07T08:50:04;6.70;;;5.10;;
8104;SDS011;4095;48.942;9.104;2024-01-07T08:52:30;6.53;;;5.67;;
8104;SDS011;4095;48.942;9.104;2024-01-07T08:54:56;8.00;;;6.00;;
8104;SDS011;4095;48.942;9.104;2024-01-07T08:57:22;7.93;;;6.20;;
8104;SDS011;4095;48.942;9.104;2024-01-07T08:59:47;7.23;;;6.50;;
8104;SDS011;4095;48.942;9.104;2024-01-07T09:02:13;7.87;;;6.80;;
8104;SDS011;4095;48.942;9.104;2024-01-07T09:04:39;8.07;;;6.53;;
8104;SDS011;4095;48.942;9.104;2024-01-07T09:07:04;7.77;;;6.27;;
8104;SDS011;4095;48.942;9.104;2024-01-07T09:09:30;7.80;;;6.63;;
8104;SDS011;4095;48.942;9.104;2024-01-07T09:11:55;8.70;;;7.10;;
8104;SDS011;4095;48.942;9.104;2024-01-07T09:14:22;7.87;;;6.83;;
8104;SDS011;4095;48.942;9.104;2024-01-07T09:16:50;9.13;;;7.43;;
8104;SDS011;4095;48.942;9.104;2024-01-07T09:19:15;9.37;;;7.03;;
8104;SDS011;4095;48.942;9.104;2024-01-07T09:21:42;8.13;;;6.57;;
8104;SDS011;4095;48.942;9.104;2024-01-07T09:24:08;9.50;;;7.60;;
8104;SDS011;4095;48.942;9.104;2024-01-07T09:26:34;8.20;;;7.40;;
8104;SDS011;4095;48.942;9.104;2024-01-07T09:29:00;7.37;;;6.57;;
8104;SDS011;4095;48.942;9.104;2024-01-07T09:31:26;7.63;;;6.30;;
8104;SDS011;4095;48.942;9.104;2024-01-07T09:33:52;8.27;;;6.17;;
8104;SDS011;4095;48.942;9.104;2024-01-07T09:36:17;6.43;;;5.70;;
8104;SDS011;4095;48.942;9.104;2024-01-07T09:38:43;7.47;;;6.50;;
8104;SDS011;4095;48.942;9.104;2024-01-07T09:41:09;6.60;;;5.60;;
8104;SDS011;4095;48.942;9.104;2024-01-07T09:43:35;7.17;;;6.10;;
8104;SDS011;4095;48.942;9.104;2024-01-07T09:46:01;6.83;;;6.00;;
8104;SDS011;4095;48.942;9.104;2024-01-07T09:48:27;7.33;;;6.53;;
8104;SDS011;4095;48.942;9.104;2024-01-07T09:50:53;6.63;;;5.93;;
8104;SDS011;4095;48.942;9.104;2024-01-07T09:53:20;7.37;;;6.30;;
8104;SDS011;4095;48.942;9.104;2024-01-07T09:55:57;7.57;;;5.87;;
8104;SDS011;4095;48.942;9.104;2024-01-07T09:58:42;6.77;;;6.07;;
8104;SDS011;4095;48.942;9.104;2024-01-07T10:01:08;8.53;;;6.57;;
8104;SDS011;4095;48.942;9.104;2024-01-07T10:03:35;6.30;;;5.70;;
8104;SDS011;4095;48.942;9.104;2024-01-07T10:06:00;6.20;;;5.57;;
8104;SDS011;4095;48.942;9.104;2024-01-07T10:08:27;6.87;;;5.67;;
8104;SDS011;4095;48.942;9.104;2024-01-07T10:10:52;6.53;;;5.93;;
8104;SDS011;4095;48.942;9.104;2024-01-07T10:13:19;6.00;;;5.40;;
8104;SDS011;4095;48.942;9.104;2024-01-07T10:15:45;5.67;;;4.77;;
8104;SDS011;4095;48.942;9.104;2024-01-07T10:18:11;5.10;;;4.60;;
8104;SDS011;4095;48.942;9.104;2024-01-07T10:20:36;4.60;;;4.10;;
8104;SDS011;4095;48.942;9.104;2024-01-07T10:23:03;4.60;;;4.20;;
8104;SDS011;4095;48.942;9.104;2024-01-07T10:25:32;4.57;;;3.97;;
8104;SDS011;4095;48.942;9.104;2024-01-07T10:28:01;4.90;;;4.30;;
8104;SDS011;4095;48.942;9.104;2024-01-07T10:30:30;4.97;;;4.47;;
8104;SDS011;4095;48.942;9.104;2024-01-07T10:32:59;4.80;;;4.40;;
8104;SDS011;4095;48.942;9.104;2024-01-07T10:35:27;4.90;;;4.43;;
8104;SDS011;4095;48.942;9.104;2024-01-07T10:37:58;5.43;;;4.90;;
8104;SDS011;4095;48.942;9.104;2024-01-07T10:40:26;5.60;;;5.10;;
8104;SDS011;4095;48.942;9.104;2024-01-07T10:42:54;4.80;;;4.30;;
8104;SDS011;4095;48.942;9.104;2024-01-07T10:45:20;5.10;;;4.60;;
8104;SDS011;4095;48.942;9.104;2024-01-07T10:47:48;5.57;;;4.50;;
8104;SDS011;4095;48.942;9.104;2024-01-07T10:50:17;4.53;;;4.07;;
8104;SDS011;4095;48.942;9.104;2024-01-07T10:52:43;4.90;;;4.37;;
8104;SDS011;4095;48.942;9.104;2024-01-07T10:55:16;5.67;;;5.00;;
8104;SDS011;4095;48.942;9.104;2024-01-07T10:57:43;4.90;;;4.43;;
8104;SDS011;4095;48.942;9.104;2024-01-07T11:00:17;4.77;;;4.27;;
8104;SDS011;4095;48.942;9.104;2024-01-07T11:11:04;4.80;;;4.30;;
8104;SDS011;4095;48.942;9.104;2024-01-07T11:13:51;4.40;;;4.00;;
8104;SDS011;4095;48.942;9.104;2024-01-07T11:19:05;5.07;;;4.57;;
8104;SDS011;4095;48.942;9.104;2024-01-07T11:21:30;5.17;;;4.67;;
8104;SDS011;4095;48.942;9.104;2024-01-07T11:23:56;6.37;;;5.00;;
8104;SDS011;4095;48.942;9.104;2024-01-07T11:26:21;5.10;;;4.60;;
8104;SDS011;4095;48.942;9.104;2024-01-07T11:31:20;5.10;;;4.60;;
8104;SDS011;4095;48.942;9.104;2024-01-07T11:33:47;5.80;;;5.17;;
8104;SDS011;4095;48.942;9.104;2024-01-07T11:36:14;4.90;;;4.13;;
8104;SDS011;4095;48.942;9.104;2024-01-07T11:38:42;5.13;;;4.70;;
8104;SDS011;4095;48.942;9.104;2024-01-07T11:41:09;5.20;;;4.70;;
8104;SDS011;4095;48.942;9.104;2024-01-07T11:43:36;5.67;;;4.83;;
8104;SDS011;4095;48.942;9.104;2024-01-07T11:46:01;5.13;;;4.63;;
8104;SDS011;4095;48.942;9.104;2024-01-07T11:48:28;5.17;;;4.67;;
8104;SDS011;4095;48.942;9.104;2024-01-07T11:50:53;5.93;;;5.33;;
8104;SDS011;4095;48.942;9.104;2024-01-07T11:53:20;6.20;;;5.60;;
8104;SDS011;4095;48.942;9.104;2024-01-07T11:55:46;5.73;;;5.13;;
8104;SDS011;4095;48.942;9.104;2024-01-07T11:58:11;6.30;;;5.70;;
8104;SDS011;4095;48.942;9.104;2024-01-07T12:00:37;6.07;;;5.10;;
8104;SDS011;4095;48.942;9.104;2024-01-07T12:03:03;5.90;;;5.23;;
8104;SDS011;4095;48.942;9.104;2024-01-07T12:05:29;5.83;;;5.23;;
8104;SDS011;4095;48.942;9.104;2024-01-07T12:07:56;5.90;;;5.30;;
8104;SDS011;4095;48.942;9.104;2024-01-07T12:10:25;5.70;;;5.13;;
8104;SDS011;4095;48.942;9.104;2024-01-07T12:12:50;6.33;;;5.40;;
8104;SDS011;4095;48.942;9.104;2024-01-07T12:15:17;5.87;;;5.23;;
8104;SDS011;4095;48.942;9.104;2024-01-07T12:17:54;8.70;;;6.40;;
8104;SDS011;4095;48.942;9.104;2024-01-07T12:20:21;6.00;;;5.37;;
8104;SDS011;4095;48.942;9.104;2024-01-07T12:22:47;6.73;;;6.03;;
8104;SDS011;4095;48.942;9.104;2024-01-07T12:25:12;6.60;;;5.90;;
8104;SDS011;4095;48.942;9.104;2024-01-07T12:27:40;6.57;;;5.87;;
8104;SDS011;4095;48.942;9.104;2024-01-07T12:30:06;6.40;;;5.70;;
8104;SDS011;4095;48.942;9.104;2024-01-07T12:32:32;6.60;;;5.87;;
8104;SDS011;4095;48.942;9.104;2024-01-07T12:34:58;7.13;;;6.37;;
8104;SDS011;4095;48.942;9.104;2024-01-07T12:37:26;7.10;;;5.90;;
8104;SDS011;4095;48.942;9.104;2024-01-07T12:39:52;6.83;;;5.97;;
8104;SDS011;4095;48.942;9.104;2024-01-07T12:42:18;7.60;;;6.80;;
8104;SDS011;4095;48.942;9.104;2024-01-07T12:44:45;7.43;;;6.27;;
8104;SDS011;4095;48.942;9.104;2024-01-07T12:47:10;7.73;;;6.90;;
8104;SDS011;4095;48.942;9.104;2024-01-07T12:49:36;7.17;;;6.47;;
8104;SDS011;4095;48.942;9.104;2024-01-07T12:52:01;7.13;;;6.43;;
8104;SDS011;4095;48.942;9.104;2024-01-07T12:54:27;6.73;;;6.00;;
8104;SDS011;4095;48.942;9.104;2024-01-07T12:56:53;7.47;;;6.70;;
8104;SDS011;4095;48.942;9.104;2024-01-07T12:59:18;9.03;;;7.30;;
8104;SDS011;4095;48.942;9.104;2024-01-07T13:01:44;6.87;;;6.17;;
8104;SDS011;4095;48.942;9.104;2024-01-07T13:04:09;7.03;;;5.97;;
8104;SDS011;4095;48.942;9.104;2024-01-07T13:06:35;7.07;;;5.90;;
8104;SDS011;4095;48.942;9.104;2024-01-07T13:09:01;7.53;;;6.40;;
8104;SDS011;4095;48.942;9.104;2024-01-07T13:11:29;7.50;;;6.80;;
8104;SDS011;4095;48.942;9.104;2024-01-07T13:13:57;7.73;;;6.37;;
8104;SDS011;4095;48.942;9.104;2024-01-07T13:16:25;8.67;;;7.30;;
8104;SDS011;4095;48.942;9.104;2024-01-07T13:18:51;7.83;;;7.03;;
8104;SDS011;4095;48.942;9.104;2024-01-07T13:21:16;8.33;;;7.47;;
8104;SDS011;4095;48.942;9.104;2024-01-07T13:23:43;8.60;;;7.70;;
8104;SDS011;4095;48.942;9.104;2024-01-07T13:26:09;7.80;;;7.00;;
8104;SDS011;4095;48.942;9.104;2024-01-07T13:28:35;9.53;;;7.83;;
8104;SDS011;4095;48.942;9.104;2024-01-07T13:31:00;7.13;;;6.43;;
8104;SDS011;4095;48.942;9.104;2024-01-07T13:33:28;7.43;;;6.60;;
8104;SDS011;4095;48.942;9.104;2024-01-07T13:35:54;7.87;;;7.07;;
8104;SDS011;4095;48.942;9.104;2024-01-07T13:38:20;7.77;;;6.97;;
8104;SDS011;4095;48.942;9.104;2024-01-07T13:40:45;8.83;;;7.40;;
8104;SDS011;4095;48.942;9.104;2024-01-07T13:43:11;7.93;;;7.07;;
8104;SDS011;4095;48.942;9.104;2024-01-07T13:45:37;8.30;;;7.27;;
8104;SDS011;4095;48.942;9.104;2024-01-07T13:48:02;7.90;;;7.00;;
8104;SDS011;4095;48.942;9.104;2024-01-07T13:50:28;7.73;;;6.93;;
8104;SDS011;4095;48.942;9.104;2024-01-07T13:52:54;8.70;;;7.37;;
8104;SDS011;4095;48.942;9.104;2024-01-07T13:55:19;8.77;;;7.87;;
8104;SDS011;4095;48.942;9.104;2024-01-07T13:57:45;8.13;;;7.27;;
8104;SDS011;4095;48.942;9.104;2024-01-07T14:00:11;7.90;;;7.00;;
8104;SDS011;4095;48.942;9.104;2024-01-07T14:02:43;8.40;;;7.30;;
8104;SDS011;4095;48.942;9.104;2024-01-07T14:05:10;7.90;;;6.57;;
8104;SDS011;4095;48.942;9.104;2024-01-07T14:07:36;8.67;;;7.10;;
8104;SDS011;4095;48.942;9.104;2024-01-07T14:10:03;8.23;;;7.13;;
8104;SDS011;4095;48.942;9.104;2024-01-07T14:12:32;8.47;;;7.57;;
8104;SDS011;4095;48.942;9.104;2024-01-07T14:14:58;8.80;;;6.97;;
8104;SDS011;4095;48.942;9.104;2024-01-07T14:17:26;8.50;;;7.47;;
8104;SDS011;4095;48.942;9.104;2024-01-07T14:19:52;8.57;;;7.67;;
8104;SDS011;4095;48.942;9.104;2024-01-07T14:22:19;7.33;;;6.53;;
8104;SDS011;4095;48.942;9.104;2024-01-07T14:24:46;11.50;;;7.93;;
8104;SDS011;4095;48.942;9.104;2024-01-07T14:27:12;11.00;;;8.50;;
8104;SDS011;4095;48.942;9.104;2024-01-07T14:29:39;8.70;;;7.80;;
8104;SDS011;4095;48.942;9.104;2024-01-07T14:32:05;8.40;;;7.60;;
8104;SDS011;4095;48.942;9.104;2024-01-07T14:34:31;9.73;;;6.57;;
8104;SDS011;4095;48.942;9.104;2024-01-07T14:36:57;7.47;;;6.70;;
8104;SDS011;4095;48.942;9.104;2024-01-07T14:39:23;8.50;;;6.50;;
8104;SDS011;4095;48.942;9.104;2024-01-07T14:41:48;7.90;;;6.90;;
8104;SDS011;4095;48.942;9.104;2024-01-07T14:44:14;9.53;;;7.27;;
8104;SDS011;4095;48.942;9.104;2024-01-07T14:46:39;7.30;;;6.27;;
8104;SDS011;4095;48.942;9.104;2024-01-07T14:49:05;7.80;;;6.93;;
8104;SDS011;4095;48.942;9.104;2024-01-07T14:51:32;8.30;;;7.13;;
8104;SDS011;4095;48.942;9.104;2024-01-07T14:53:57;7.33;;;6.50;;
8104;SDS011;4095;48.942;9.104;2024-01-07T14:56:23;8.57;;;7.00;;
8104;SDS011;4095;48.942;9.104;2024-01-07T14:58:49;8.20;;;7.27;;
8104;SDS011;4095;48.942;9.104;2024-01-07T15:01:15;7.60;;;6.80;;
8104;SDS011;4095;48.942;9.104;2024-01-07T15:03:41;7.73;;;6.70;;
8104;SDS011;4095;48.942;9.104;2024-01-07T15:06:07;8.10;;;6.37;;
8104;SDS011;4095;48.942;9.104;2024-01-07T15:08:34;7.20;;;6.50;;
8104;SDS011;4095;48.942;9.104;2024-01-07T15:11:00;6.20;;;5.50;;